PWSweather.com
Personal Weather Stations
Station Observations
ME1989
Sicily, Barcellona Pozzo Di GottoIT

SicilyBarcellona Pozzo Di GottoIT

Lat: 38.1487398, Lon: 15.2113962

Elevation: 131

Station Type: Peet Bros

Latest ConditionsUpdated 2:10:00 PM GMT+01:01 Sunday, Jul 5, 2015
Currently Today's Max Today's Min Today's Average
Temperature 85.8°F29.9°C 85.9°F29.9°C 74.6°F23.7°C 79.1°F26.2°C
Dew Point 55.8°F13.2°C 65.1°F18.4°C 54.7°F12.6°C 59.3°F15.2°C
Winds 6.9 mph NW11.1 kmh NW 8.1 mph NW13.0 kmh NW - 3.0 mph 4.8 kmh
Wind Gusts 9.2 mph14.8 kmh 10.4 mph16.7 kmh - -
Humidity 36% 66% 35% 51%
Pressure 30.07 in1018.3 mb 30.09 in1019.0 mb 30.06 in1017.9 mb -
Hour Temp Dew Point Humidity Winds Wind Gusts Pressure Precip Precip Rate Daily Precip Total
02:10 PM 85.8°F29.9°C 55.8°F13.2°C 36% 6.9 mph NW11.1 kmh NW 9.2 mph14.8 kmh 30.07 in1018.3 mb - 0.00 in0.0 mm 0.00 in0.0 mm
02:00 PM 85.9°F29.9°C 57.4°F14.1°C 38% 3.5 mph NNW5.6 kmh NNW 9.2 mph14.8 kmh 30.08 in1018.6 mb - 0.00 in0.0 mm 0.00 in0.0 mm
01:50 PM 85.5°F29.7°C 54.7°F12.6°C 35% 5.8 mph NW9.3 kmh NW 8.1 mph13.0 kmh 30.08 in1018.6 mb - 0.00 in0.0 mm 0.00 in0.0 mm
01:40 PM 85.2°F29.6°C 55.2°F12.9°C 36% 6.9 mph NW11.1 kmh NW 9.2 mph14.8 kmh 30.08 in1018.6 mb - 0.00 in0.0 mm 0.00 in0.0 mm
01:30 PM 84.9°F29.4°C 60.6°F15.9°C 44% 5.8 mph NNW9.3 kmh NNW 9.2 mph14.8 kmh 30.08 in1018.6 mb - 0.00 in0.0 mm 0.00 in0.0 mm
01:20 PM 84.9°F29.4°C 61.8°F16.6°C 46% 5.8 mph NW9.3 kmh NW 9.2 mph14.8 kmh 30.08 in1018.6 mb - 0.00 in0.0 mm 0.00 in0.0 mm
01:10 PM 84.3°F29.1°C 60.7°F15.9°C 45% 5.8 mph WNW9.3 kmh WNW 8.1 mph13.0 kmh 30.08 in1018.6 mb - 0.00 in0.0 mm 0.00 in0.0 mm
01:00 PM 84.0°F28.9°C 57.7°F14.3°C 41% 5.8 mph NW9.3 kmh NW 9.2 mph14.8 kmh 30.08 in1018.6 mb - 0.00 in0.0 mm 0.00 in0.0 mm
12:50 PM 83.6°F28.7°C 59.3°F15.2°C 44% 6.9 mph NW11.1 kmh NW 9.2 mph14.8 kmh 30.08 in1018.6 mb - 0.00 in0.0 mm 0.00 in0.0 mm
12:40 PM 83.7°F28.7°C 61.4°F16.3°C 47% 4.6 mph NW7.4 kmh NW 8.1 mph13.0 kmh 30.09 in1019.0 mb - 0.00 in0.0 mm 0.00 in0.0 mm
12:30 PM 83.5°F28.6°C 59.9°F15.5°C 45% 5.8 mph NW9.3 kmh NW 9.2 mph14.8 kmh 30.09 in1019.0 mb - 0.00 in0.0 mm 0.00 in0.0 mm
12:20 PM 83.5°F28.6°C 59.3°F15.2°C 44% 8.1 mph NW13.0 kmh NW 9.2 mph14.8 kmh 30.09 in1019.0 mb - 0.00 in0.0 mm 0.00 in0.0 mm
12:10 PM 83.4°F28.6°C 60.4°F15.8°C 46% 6.9 mph NW11.1 kmh NW 9.2 mph14.8 kmh 30.09 in1019.0 mb - 0.00 in0.0 mm 0.00 in0.0 mm
12:00 PM 82.8°F28.2°C 61.1°F16.2°C 48% 4.6 mph N7.4 kmh N 5.8 mph9.3 kmh 30.09 in1019.0 mb - 0.00 in0.0 mm 0.00 in0.0 mm
11:50 AM 82.4°F28.0°C 61.9°F16.6°C 50% 4.6 mph NW7.4 kmh NW 6.9 mph11.1 kmh 30.09 in1019.0 mb - 0.00 in0.0 mm 0.00 in0.0 mm
11:40 AM 81.9°F27.7°C 63.1°F17.3°C 53% 6.9 mph NNW11.1 kmh NNW 8.1 mph13.0 kmh 30.09 in1019.0 mb - 0.00 in0.0 mm 0.00 in0.0 mm
11:30 AM 81.9°F27.7°C 63.6°F17.6°C 54% 4.6 mph N7.4 kmh N 6.9 mph11.1 kmh 30.09 in1019.0 mb - 0.00 in0.0 mm 0.00 in0.0 mm
11:20 AM 82.1°F27.8°C 61.0°F16.1°C 49% 6.9 mph NW11.1 kmh NW 8.1 mph13.0 kmh 30.09 in1019.0 mb - 0.00 in0.0 mm 0.00 in0.0 mm
11:10 AM 81.9°F27.7°C 63.6°F17.6°C 54% 5.8 mph NNW9.3 kmh NNW 10.4 mph16.7 kmh 30.09 in1019.0 mb - 0.00 in0.0 mm 0.00 in0.0 mm
11:00 AM 82.1°F27.8°C 63.3°F17.4°C 53% 6.9 mph NNW11.1 kmh NNW 10.4 mph16.7 kmh 30.09 in1019.0 mb - 0.00 in0.0 mm 0.00 in0.0 mm
10:50 AM 82.3°F27.9°C 65.1°F18.4°C 56% 4.6 mph NW7.4 kmh NW 6.9 mph11.1 kmh 30.09 in1019.0 mb - 0.00 in0.0 mm 0.00 in0.0 mm
10:40 AM 81.7°F27.6°C 64.5°F18.1°C 56% 6.9 mph NW11.1 kmh NW 9.2 mph14.8 kmh 30.09 in1019.0 mb - 0.00 in0.0 mm 0.00 in0.0 mm
10:30 AM 81.5°F27.5°C 62.2°F16.8°C 52% 6.9 mph WNW11.1 kmh WNW 9.2 mph14.8 kmh 30.08 in1018.6 mb - 0.00 in0.0 mm 0.00 in0.0 mm
10:20 AM 82.0°F27.8°C 61.5°F16.4°C 50% 5.8 mph NW9.3 kmh NW 6.9 mph11.1 kmh 30.08 in1018.6 mb - 0.00 in0.0 mm 0.00 in0.0 mm
10:10 AM 81.8°F27.7°C 63.0°F17.2°C 53% 5.8 mph NW9.3 kmh NW 6.9 mph11.1 kmh 30.08 in1018.6 mb - 0.00 in0.0 mm 0.00 in0.0 mm
10:00 AM 82.0°F27.8°C 62.1°F16.7°C 51% 4.6 mph NNW7.4 kmh NNW 6.9 mph11.1 kmh 30.08 in1018.6 mb - 0.00 in0.0 mm 0.00 in0.0 mm
09:50 AM 81.4°F27.4°C 61.5°F16.4°C 51% 5.8 mph NW9.3 kmh NW 5.8 mph9.3 kmh 30.08 in1018.6 mb - 0.00 in0.0 mm 0.00 in0.0 mm
09:40 AM 82.0°F27.8°C 60.4°F15.8°C 48% 3.5 mph NW5.6 kmh NW 6.9 mph11.1 kmh 30.08 in1018.6 mb - 0.00 in0.0 mm 0.00 in0.0 mm
09:30 AM 82.0°F27.8°C 60.4°F15.8°C 48% 5.8 mph N9.3 kmh N 6.9 mph11.1 kmh 30.08 in1018.6 mb - 0.00 in0.0 mm 0.00 in0.0 mm
09:20 AM 81.9°F27.7°C 60.8°F16.0°C 49% 3.5 mph N5.6 kmh N 4.6 mph7.4 kmh 30.08 in1018.6 mb - 0.00 in0.0 mm 0.00 in0.0 mm
09:10 AM 81.4°F27.4°C 60.4°F15.8°C 49% 3.5 mph NW5.6 kmh NW 4.6 mph7.4 kmh 30.08 in1018.6 mb - 0.00 in0.0 mm 0.00 in0.0 mm
09:00 AM 82.1°F27.8°C 61.0°F16.1°C 49% 5.8 mph NW9.3 kmh NW 8.1 mph13.0 kmh 30.08 in1018.6 mb - 0.00 in0.0 mm 0.00 in0.0 mm
08:50 AM 82.4°F28.0°C 58.9°F14.9°C 45% 3.5 mph NNW5.6 kmh NNW 4.6 mph7.4 kmh 30.08 in1018.6 mb - 0.00 in0.0 mm 0.00 in0.0 mm
08:40 AM 81.9°F27.7°C 58.4°F14.7°C 45% 1.2 mph NW1.9 kmh NW 3.5 mph5.6 kmh 30.08 in1018.6 mb - 0.00 in0.0 mm 0.00 in0.0 mm
08:30 AM 82.0°F27.8°C 59.2°F15.1°C 46% 1.2 mph NW1.9 kmh NW 1.2 mph1.9 kmh 30.08 in1018.6 mb - 0.00 in0.0 mm 0.00 in0.0 mm
08:20 AM 82.1°F27.8°C 59.3°F15.2°C 46% Calm Calm -- 30.08 in1018.6 mb - 0.00 in0.0 mm 0.00 in0.0 mm
08:10 AM 80.4°F26.9°C 58.9°F14.9°C 48% Calm Calm -- 30.08 in1018.6 mb - 0.00 in0.0 mm 0.00 in0.0 mm
08:00 AM 80.0°F26.7°C 59.1°F15.1°C 49% 3.5 mph N5.6 kmh N 3.5 mph5.6 kmh 30.09 in1019.0 mb - 0.00 in0.0 mm 0.00 in0.0 mm
07:50 AM 80.4°F26.9°C 58.3°F14.6°C 47% 1.2 mph N1.9 kmh N 2.3 mph3.7 kmh 30.08 in1018.6 mb - 0.00 in0.0 mm 0.00 in0.0 mm
07:40 AM 80.2°F26.8°C 58.2°F14.6°C 47% Calm Calm 3.5 mph5.6 kmh 30.08 in1018.6 mb - 0.00 in0.0 mm 0.00 in0.0 mm
07:30 AM 79.6°F26.4°C 58.8°F14.9°C 49% Calm Calm -- 30.08 in1018.6 mb - 0.00 in0.0 mm 0.00 in0.0 mm
07:20 AM 79.3°F26.3°C 57.9°F14.4°C 48% Calm Calm -- 30.08 in1018.6 mb - 0.00 in0.0 mm 0.00 in0.0 mm
07:10 AM 78.3°F25.7°C 57.6°F14.2°C 49% Calm Calm -- 30.08 in1018.6 mb - 0.00 in0.0 mm 0.00 in0.0 mm
07:00 AM 77.2°F25.1°C 57.1°F13.9°C 50% Calm Calm -- 30.08 in1018.6 mb - 0.00 in0.0 mm 0.00 in0.0 mm
06:50 AM 76.8°F24.9°C 56.8°F13.8°C 50% Calm Calm -- 30.08 in1018.6 mb - 0.00 in0.0 mm 0.00 in0.0 mm
06:40 AM 77.2°F25.1°C 57.1°F13.9°C 50% Calm Calm -- 30.08 in1018.6 mb - 0.00 in0.0 mm 0.00 in0.0 mm
06:30 AM 76.7°F24.8°C 58.2°F14.6°C 53% Calm Calm -- 30.08 in1018.6 mb - 0.00 in0.0 mm 0.00 in0.0 mm
06:20 AM 76.2°F24.6°C 57.3°F14.1°C 52% 1.2 mph NNE1.9 kmh NNE 2.3 mph3.7 kmh 30.08 in1018.6 mb - 0.00 in0.0 mm 0.00 in0.0 mm
06:10 AM 76.6°F24.8°C 57.6°F14.2°C 52% 2.3 mph NE3.7 kmh NE 2.3 mph3.7 kmh 30.07 in1018.3 mb - 0.00 in0.0 mm 0.00 in0.0 mm
06:00 AM 76.8°F24.9°C 58.4°F14.7°C 53% Calm Calm -- 30.07 in1018.3 mb - 0.00 in0.0 mm 0.00 in0.0 mm
05:51 AM 76.1°F24.5°C 58.3°F14.6°C 54% Calm Calm -- 30.07 in1018.3 mb - 0.00 in0.0 mm 0.00 in0.0 mm
05:40 AM 75.8°F24.3°C 57.5°F14.2°C 53% Calm Calm -- 30.06 in1017.9 mb - 0.00 in0.0 mm 0.00 in0.0 mm
05:30 AM 75.7°F24.3°C 57.3°F14.1°C 53% Calm Calm -- 30.06 in1017.9 mb - 0.00 in0.0 mm 0.00 in0.0 mm
05:20 AM 75.5°F24.2°C 56.6°F13.7°C 52% Calm Calm -- 30.06 in1017.9 mb - 0.00 in0.0 mm 0.00 in0.0 mm
05:10 AM 74.7°F23.7°C 56.5°F13.6°C 53% Calm Calm -- 30.06 in1017.9 mb - 0.00 in0.0 mm 0.00 in0.0 mm
05:00 AM 74.6°F23.7°C 56.9°F13.8°C 54% Calm Calm -- 30.06 in1017.9 mb - 0.00 in0.0 mm 0.00 in0.0 mm
04:50 AM 76.1°F24.5°C 56.1°F13.4°C 50% 2.3 mph NE3.7 kmh NE 4.6 mph7.4 kmh 30.06 in1017.9 mb - 0.00 in0.0 mm 0.00 in0.0 mm
04:40 AM 76.1°F24.5°C 55.5°F13.1°C 49% 4.6 mph S7.4 kmh S 5.8 mph9.3 kmh 30.06 in1017.9 mb - 0.00 in0.0 mm 0.00 in0.0 mm
04:30 AM 76.2°F24.6°C 55.7°F13.2°C 49% 3.5 mph S5.6 kmh S 5.8 mph9.3 kmh 30.06 in1017.9 mb - 0.00 in0.0 mm 0.00 in0.0 mm
04:20 AM 76.2°F24.6°C 55.7°F13.2°C 49% 4.6 mph S7.4 kmh S 6.9 mph11.1 kmh 30.06 in1017.9 mb - 0.00 in0.0 mm 0.00 in0.0 mm
04:10 AM 76.0°F24.4°C 55.5°F13.1°C 49% 4.6 mph S7.4 kmh S 6.9 mph11.1 kmh 30.06 in1017.9 mb - 0.00 in0.0 mm 0.00 in0.0 mm
04:00 AM 75.8°F24.3°C 55.8°F13.2°C 50% 6.9 mph S11.1 kmh S 8.1 mph13.0 kmh 30.06 in1017.9 mb - 0.00 in0.0 mm 0.00 in0.0 mm
03:50 AM 75.7°F24.3°C 55.7°F13.2°C 50% 5.8 mph S9.3 kmh S 6.9 mph11.1 kmh 30.06 in1017.9 mb - 0.00 in0.0 mm 0.00 in0.0 mm
03:40 AM 75.2°F24.0°C 56.9°F13.8°C 53% 4.6 mph S7.4 kmh S 5.8 mph9.3 kmh 30.06 in1017.9 mb - 0.00 in0.0 mm 0.00 in0.0 mm
03:30 AM 75.6°F24.2°C 57.8°F14.3°C 54% 2.3 mph S3.7 kmh S 2.3 mph3.7 kmh 30.06 in1017.9 mb - 0.00 in0.0 mm 0.00 in0.0 mm
03:20 AM 75.6°F24.2°C 57.8°F14.3°C 54% Calm Calm -- 30.06 in1017.9 mb - 0.00 in0.0 mm 0.00 in0.0 mm
03:10 AM 75.7°F24.3°C 58.4°F14.7°C 55% Calm Calm -- 30.06 in1017.9 mb - 0.00 in0.0 mm 0.00 in0.0 mm
03:00 AM 76.0°F24.4°C 58.2°F14.6°C 54% Calm Calm -- 30.06 in1017.9 mb - 0.00 in0.0 mm 0.00 in0.0 mm
02:50 AM 76.2°F24.6°C 57.8°F14.3°C 53% Calm Calm -- 30.06 in1017.9 mb - 0.00 in0.0 mm 0.00 in0.0 mm
02:40 AM 76.2°F24.6°C 57.3°F14.1°C 52% 1.2 mph SE1.9 kmh SE 1.2 mph1.9 kmh 30.06 in1017.9 mb - 0.00 in0.0 mm 0.00 in0.0 mm
02:30 AM 76.2°F24.6°C 57.8°F14.3°C 53% 2.3 mph S3.7 kmh S 4.6 mph7.4 kmh 30.06 in1017.9 mb - 0.00 in0.0 mm 0.00 in0.0 mm
02:20 AM 76.0°F24.4°C 58.2°F14.6°C 54% 4.6 mph S7.4 kmh S 5.8 mph9.3 kmh 30.07 in1018.3 mb - 0.00 in0.0 mm 0.00 in0.0 mm
02:10 AM 75.7°F24.3°C 58.4°F14.7°C 55% 3.5 mph S5.6 kmh S 4.6 mph7.4 kmh 30.07 in1018.3 mb - 0.00 in0.0 mm 0.00 in0.0 mm
02:00 AM 75.7°F24.3°C 58.9°F14.9°C 56% 3.5 mph S5.6 kmh S 5.8 mph9.3 kmh 30.07 in1018.3 mb - 0.00 in0.0 mm 0.00 in0.0 mm
01:50 AM 75.6°F24.2°C 59.8°F15.4°C 58% Calm Calm -- 30.07 in1018.3 mb - 0.00 in0.0 mm 0.00 in0.0 mm
01:40 AM 75.8°F24.3°C 60.4°F15.8°C 59% Calm Calm -- 30.07 in1018.3 mb - 0.00 in0.0 mm 0.00 in0.0 mm
01:30 AM 75.7°F24.3°C 59.9°F15.5°C 58% Calm Calm -- 30.08 in1018.6 mb - 0.00 in0.0 mm 0.00 in0.0 mm
01:20 AM 75.8°F24.3°C 60.9°F16.1°C 60% Calm Calm -- 30.08 in1018.6 mb - 0.00 in0.0 mm 0.00 in0.0 mm
01:10 AM 75.6°F24.2°C 61.2°F16.2°C 61% Calm Calm -- 30.08 in1018.6 mb - 0.00 in0.0 mm 0.00 in0.0 mm
01:00 AM 75.4°F24.1°C 61.5°F16.4°C 62% Calm Calm -- 30.08 in1018.6 mb - 0.00 in0.0 mm 0.00 in0.0 mm
12:50 AM 75.3°F24.1°C 62.3°F16.8°C 64% Calm Calm -- 30.08 in1018.6 mb - 0.00 in0.0 mm 0.00 in0.0 mm
12:40 AM 75.3°F24.1°C 62.7°F17.1°C 65% Calm Calm 2.3 mph3.7 kmh 30.08 in1018.6 mb - 0.00 in0.0 mm 0.00 in0.0 mm
12:30 AM 75.3°F24.1°C 62.7°F17.1°C 65% Calm Calm -- 30.08 in1018.6 mb - 0.00 in0.0 mm 0.00 in0.0 mm
12:20 AM 75.6°F24.2°C 63.4°F17.4°C 66% 2.3 mph S3.7 kmh S 3.5 mph5.6 kmh 30.09 in1019.0 mb - 0.00 in0.0 mm 0.00 in0.0 mm
12:10 AM 75.7°F24.3°C 63.6°F17.6°C 66% 3.5 mph S5.6 kmh S 3.5 mph5.6 kmh 30.08 in1018.6 mb - 0.00 in0.0 mm 0.00 in0.0 mm
12:00 AM 75.9°F24.4°C 62.4°F16.9°C 63% 2.3 mph SSE3.7 kmh SSE 3.5 mph5.6 kmh 30.09 in1019.0 mb - 0.00 in0.0 mm 0.00 in0.0 mm